Haifa, Israel

10:09 PM IDT on August 30, 2016 (GMT +0300)
Haifa | | Change Station

Elev 676 ft 32.81 °N, 34.99 °E | Updated 7 minutes ago

Scattered Clouds
Scattered Clouds
78.0 °F
Feels Like 80 °F
N
4.0
Wind Variable Wind from NW
Gusts 6.0 mph

Today
High -- | Low -- °F
--% Chance of Precip.
Yesterday
High -- | Low -- °F
Precip. -- in
Pressure 29.83 in
Visibility 6.2 miles
Clouds Scattered Clouds 2600 ft
Heat Index 80 °F
Dew Point 73 °F
Humidity 84%
Rainfall 0.00 in
Snow Depth Not available.
6:13 AM 7:06 PM
Waning Crescent, 3% visible
METAR LLHA 301850Z 30006KT 9999 SCT026 28/23 Q1010
Pressure 29.83 in
Visibility 6.2 miles
Clouds Scattered Clouds 2600 ft
Heat Index 80 °F
Dew Point 73 °F
Humidity 84%
Rainfall 0.00 in
Snow Depth Not available.
6:13 AM 7:06 PM
Waning Crescent, 3% visible
METAR LLHA 301850Z 30006KT 9999 SCT026 28/23 Q1010

10-Day Weather Forecast

No radar image for this location.
×

Almanac

Astronomy

Aug. 30, 2016 Rise Set
Actual Time
Civil Twilight
Nautical Twilight
Astronomical Twilight
Moon
Length of Visible Light
Length of Day
Tomorrow will be .
, % of the Moon is Illuminated

Today's Extremes

Country Highs Country Lows

Community

WunderPhotos

Upload Photos

1,935,879 photos uploaded!

WunderBlog® & News

Nearby

Air Quality

  Air Quality AQ Index Pollutant
Not available.

Snow Depth

Station Depth Elevation

Earthquake Activity

City Distance Mag. Time & Date
Minimum magnitude displayed is 2.5.

Coastal Water Temperatures

Place Temperature

Stations

Nearby Weather Stations

Station Location Temp. Windchill Dew Point Humidity Wind Precip. Elev Updated Type